Time;durP1;ratioP1;P1;durP2;ratioP2;P2;SDS_P1;SDS_P2;PMS_P1;PMS_P2;Temp;Humidity;BMP_temperature;BMP_pressure;BME280_temperature;BME280_humidity;BME280_pressure;Samples;Min_cycle;Max_cycle;Signal;HPM_P1;HPM_P2
2023/10/31 00:02:20;;;;;;;5.05;3.97;;;;;;;;;;4995990;28;20115;-88
2023/10/31 00:04:47;;;;;;;5.15;4.15;;;;;;;;;;4978995;28;20050;-88
2023/10/31 00:07:14;;;;;;;10.45;4.53;;;;;;;;;;4983231;28;20049;-89
2023/10/31 00:09:41;;;;;;;5.35;3.72;;;;;;;;;;4981835;28;20113;-88
2023/10/31 00:12:09;;;;;;;6.82;3.30;;;;;;;;;;4996531;28;20487;-89
2023/10/31 00:14:36;;;;;;;5.70;4.30;;;;;;;;;;5000016;28;20105;-88
2023/10/31 00:17:03;;;;;;;4.35;3.95;;;;;;;;;;5004709;28;20050;-89
2023/10/31 00:19:31;;;;;;;4.68;4.28;;;;;;;;;;4984353;28;20072;-89
2023/10/31 00:21:58;;;;;;;6.68;3.88;;;;;;;;;;4982878;28;20514;-89
2023/10/31 00:24:25;;;;;;;5.95;3.97;;;;;;;;;;4978523;28;20492;-90
2023/10/31 00:26:53;;;;;;;6.22;4.10;;;;;;;;;;4997472;28;20450;-89
2023/10/31 00:29:20;;;;;;;8.82;4.88;;;;;;;;;;4979850;28;20101;-90
2023/10/31 00:31:48;;;;;;;5.10;4.53;;;;;;;;;;4979702;28;20113;-89
2023/10/31 00:34:15;;;;;;;5.82;4.35;;;;;;;;;;4996427;28;20046;-89
2023/10/31 00:36:42;;;;;;;7.43;5.03;;;;;;;;;;4981510;28;20054;-90
2023/10/31 00:39:10;;;;;;;6.72;4.28;;;;;;;;;;4982755;28;20054;-89
2023/10/31 00:41:38;;;;;;;7.47;4.22;;;;;;;;;;4979576;28;20100;-89
2023/10/31 00:44:05;;;;;;;9.27;4.97;;;;;;;;;;4980049;28;20411;-89
2023/10/31 00:46:33;;;;;;;7.28;4.40;;;;;;;;;;4997998;28;20452;-88
2023/10/31 00:49:00;;;;;;;7.38;4.38;;;;;;;;;;4980465;28;20054;-89
2023/10/31 00:51:27;;;;;;;8.20;4.85;;;;;;;;;;4981044;28;20046;-88
2023/10/31 00:53:54;;;;;;;8.00;4.15;;;;;;;;;;4997339;28;20057;-88
2023/10/31 00:56:22;;;;;;;7.47;4.75;;;;;;;;;;4983173;28;20460;-88
2023/10/31 00:58:49;;;;;;;8.40;4.50;;;;;;;;;;4999564;28;20120;-88
2023/10/31 01:01:16;;;;;;;8.60;5.20;;;;;;;;;;4986598;28;20046;-88
2023/10/31 01:03:44;;;;;;;6.97;4.60;;;;;;;;;;4987173;28;20129;-88
2023/10/31 01:06:11;;;;;;;9.95;5.38;;;;;;;;;;5002777;28;20054;-88
2023/10/31 01:08:38;;;;;;;16.90;5.90;;;;;;;;;;5002898;28;20089;-88
2023/10/31 01:11:06;;;;;;;5.57;4.88;;;;;;;;;;4985329;28;20128;-89
2023/10/31 01:13:33;;;;;;;8.50;5.43;;;;;;;;;;4984122;28;20056;-88
2023/10/31 01:16:00;;;;;;;6.93;4.82;;;;;;;;;;4985960;28;20487;-88
2023/10/31 01:18:28;;;;;;;11.57;5.75;;;;;;;;;;4984480;28;20133;-88
2023/10/31 01:20:55;;;;;;;7.53;5.45;;;;;;;;;;5002527;28;20046;-89
2023/10/31 01:23:22;;;;;;;6.75;5.13;;;;;;;;;;4984494;28;20054;-88
2023/10/31 01:25:50;;;;;;;7.38;4.85;;;;;;;;;;4986336;28;20046;-88
2023/10/31 01:28:17;;;;;;;8.50;4.75;;;;;;;;;;4985772;28;20054;-88
2023/10/31 01:30:44;;;;;;;7.70;4.05;;;;;;;;;;5002651;28;20050;-89
2023/10/31 01:33:12;;;;;;;7.63;4.72;;;;;;;;;;4991302;28;20046;-86
2023/10/31 01:35:39;;;;;;;7.25;4.80;;;;;;;;;;5024126;28;20069;-88
2023/10/31 01:38:06;;;;;;;5.60;4.63;;;;;;;;;;5005757;28;20058;-88
2023/10/31 01:40:34;;;;;;;6.63;5.20;;;;;;;;;;4986206;28;20475;-88
2023/10/31 01:43:01;;;;;;;5.13;4.63;;;;;;;;;;4986490;28;20096;-88
2023/10/31 01:45:28;;;;;;;8.15;5.50;;;;;;;;;;5001530;28;20046;-88
2023/10/31 01:47:56;;;;;;;5.80;4.28;;;;;;;;;;5001802;28;20108;-88
2023/10/31 01:50:23;;;;;;;5.53;4.32;;;;;;;;;;4984577;28;20137;-88
2023/10/31 01:52:52;;;;;;;5.65;4.35;;;;;;;;;;5003104;28;20052;-88
2023/10/31 01:55:20;;;;;;;12.02;4.45;;;;;;;;;;5001930;28;20050;-88
2023/10/31 01:57:47;;;;;;;6.93;5.15;;;;;;;;;;5001430;28;20120;-88
2023/10/31 02:00:15;;;;;;;7.32;4.88;;;;;;;;;;4984289;28;20050;-89
2023/10/31 02:02:42;;;;;;;8.35;4.53;;;;;;;;;;4983789;28;20066;-87
2023/10/31 02:05:10;;;;;;;6.88;4.85;;;;;;;;;;5000641;28;20499;-88
2023/10/31 02:07:37;;;;;;;9.00;5.10;;;;;;;;;;4982314;28;20133;-89
2023/10/31 02:10:05;;;;;;;10.23;5.00;;;;;;;;;;4998152;28;20413;-89
2023/10/31 02:12:33;;;;;;;7.70;4.95;;;;;;;;;;4997764;28;20053;-88
2023/10/31 02:15:00;;;;;;;6.38;4.22;;;;;;;;;;4981104;28;20427;-88
2023/10/31 02:17:28;;;;;;;5.85;4.07;;;;;;;;;;4980747;28;20047;-88
2023/10/31 02:19:56;;;;;;;4.88;3.80;;;;;;;;;;4998257;28;20110;-88
2023/10/31 02:22:23;;;;;;;5.70;4.18;;;;;;;;;;4980394;28;20307;-88
2023/10/31 02:24:51;;;;;;;10.80;5.75;;;;;;;;;;4980165;28;20108;-88
2023/10/31 02:27:18;;;;;;;5.47;4.70;;;;;;;;;;4997158;28;20054;-88
2023/10/31 02:29:45;;;;;;;5.90;4.95;;;;;;;;;;4997626;28;20054;-89
2023/10/31 02:32:12;;;;;;;4.97;4.47;;;;;;;;;;4989708;28;20050;-88
2023/10/31 02:34:40;;;;;;;6.05;4.85;;;;;;;;;;4980340;28;20054;-88
2023/10/31 02:37:07;;;;;;;9.25;5.82;;;;;;;;;;4997285;28;20061;-88
2023/10/31 02:39:36;;;;;;;5.88;5.00;;;;;;;;;;4997005;28;20112;-88
2023/10/31 02:42:03;;;;;;;5.60;3.35;;;;;;;;;;4980394;28;20097;-88
2023/10/31 02:44:30;;;;;;;6.65;5.47;;;;;;;;;;4980173;28;20553;-88
2023/10/31 02:46:58;;;;;;;10.90;5.47;;;;;;;;;;4980153;28;20054;-89
2023/10/31 02:49:25;;;;;;;6.18;5.25;;;;;;;;;;4980071;28;20046;-89
2023/10/31 02:51:52;;;;;;;3.10;2.90;;;;;;;;;;4980169;28;20054;-90
2023/10/31 02:54:19;;;;;;;6.57;4.63;;;;;;;;;;4997167;28;20046;-88
2023/10/31 02:56:46;;;;;;;4.82;4.40;;;;;;;;;;4980618;28;20109;-88
2023/10/31 02:59:14;;;;;;;3.35;3.15;;;;;;;;;;4979877;28;20049;-89
2023/10/31 03:01:41;;;;;;;5.78;4.15;;;;;;;;;;4996789;28;20069;-86
2023/10/31 03:04:09;;;;;;;7.13;3.65;;;;;;;;;;4980002;28;20483;-89
2023/10/31 03:06:36;;;;;;;11.23;3.85;;;;;;;;;;4979548;28;20108;-89
2023/10/31 03:09:03;;;;;;;4.93;2.17;;;;;;;;;;4979690;28;20046;-89
2023/10/31 03:11:32;;;;;;;2.67;2.47;;;;;;;;;;4979917;28;20089;-89
2023/10/31 03:13:59;;;;;;;2.60;1.40;;;;;;;;;;4979790;28;20434;-88
2023/10/31 03:16:27;;;;;;;2.58;1.27;;;;;;;;;;4996876;28;20062;-90
2023/10/31 03:18:54;;;;;;;2.08;1.30;;;;;;;;;;4979310;28;20054;-88
2023/10/31 03:21:22;;;;;;;1.10;1.00;;;;;;;;;;4979294;28;20050;-89
2023/10/31 03:23:50;;;;;;;2.25;1.08;;;;;;;;;;4975439;28;20066;-89
2023/10/31 03:26:17;;;;;;;1.23;1.00;;;;;;;;;;4991657;28;20523;-89
2023/10/31 03:28:45;;;;;;;1.92;0.90;;;;;;;;;;5001416;28;20044;-88
2023/10/31 03:31:12;;;;;;;1.15;1.15;;;;;;;;;;4989459;28;20131;-89
2023/10/31 03:33:40;;;;;;;0.60;0.60;;;;;;;;;;4987974;28;21172;-89
2023/10/31 03:36:08;;;;;;;8.43;0.68;;;;;;;;;;4988289;28;20065;-89
2023/10/31 03:38:35;;;;;;;2.25;0.63;;;;;;;;;;4979060;28;20078;-90
2023/10/31 03:41:03;;;;;;;2.80;0.70;;;;;;;;;;4987540;28;20042;-88
2023/10/31 03:43:31;;;;;;;0.45;0.45;;;;;;;;;;4978819;28;20078;-89
2023/10/31 03:45:58;;;;;;;0.73;0.50;;;;;;;;;;4996089;28;20053;-89
2023/10/31 03:48:25;;;;;;;0.80;0.52;;;;;;;;;;4978537;28;20050;-89
2023/10/31 03:50:53;;;;;;;0.50;0.50;;;;;;;;;;4979102;28;20050;-89
2023/10/31 03:53:20;;;;;;;0.50;0.50;;;;;;;;;;4979139;28;20462;-89
2023/10/31 03:55:47;;;;;;;0.30;0.30;;;;;;;;;;4979089;28;20058;-89
2023/10/31 03:58:15;;;;;;;0.45;0.40;;;;;;;;;;4978755;28;20058;-89
2023/10/31 04:00:42;;;;;;;3.40;0.50;;;;;;;;;;4996553;28;20057;-89
2023/10/31 04:03:09;;;;;;;2.45;0.40;;;;;;;;;;4978032;28;20070;-90
2023/10/31 04:05:37;;;;;;;0.40;0.40;;;;;;;;;;4996830;28;20050;-88
2023/10/31 04:08:04;;;;;;;0.90;0.40;;;;;;;;;;4979284;28;20064;-88
2023/10/31 04:10:32;;;;;;;0.55;0.25;;;;;;;;;;4996592;28;20046;-89
2023/10/31 04:12:59;;;;;;;2.17;0.25;;;;;;;;;;4979679;28;20050;-87
2023/10/31 04:15:26;;;;;;;0.20;0.15;;;;;;;;;;4979151;28;20050;-89
2023/10/31 04:17:54;;;;;;;2.75;0.28;;;;;;;;;;4978838;28;20050;-89
2023/10/31 04:20:21;;;;;;;0.20;0.20;;;;;;;;;;4978287;28;20149;-89
2023/10/31 04:22:48;;;;;;;2.28;0.15;;;;;;;;;;4977359;28;20054;-89
2023/10/31 04:25:16;;;;;;;0.22;0.22;;;;;;;;;;4978294;28;20046;-88
2023/10/31 04:27:43;;;;;;;1.48;0.10;;;;;;;;;;4978317;28;20081;-89
2023/10/31 04:30:11;;;;;;;0.20;0.20;;;;;;;;;;4977829;28;20054;-88
2023/10/31 04:32:41;;;;;;;4.00;0.30;;;;;;;;;;4978101;28;20058;-89
2023/10/31 04:35:09;;;;;;;0.10;0.10;;;;;;;;;;4978695;28;20050;-89
2023/10/31 04:37:36;;;;;;;1.70;0.20;;;;;;;;;;4979254;28;20056;-88
2023/10/31 04:40:04;;;;;;;0.25;0.15;;;;;;;;;;4986629;28;20097;-87
2023/10/31 04:42:35;;;;;;;0.13;0.13;;;;;;;;;;4976066;28;20061;-87
2023/10/31 04:45:02;;;;;;;0.65;0.30;;;;;;;;;;4978650;28;20108;-90
2023/10/31 04:47:30;;;;;;;0.20;0.20;;;;;;;;;;4978902;28;20458;-88
2023/10/31 04:49:58;;;;;;;0.28;0.28;;;;;;;;;;4984678;28;20077;-89
2023/10/31 04:52:26;;;;;;;0.57;0.30;;;;;;;;;;4965711;28;20082;-88
2023/10/31 04:54:53;;;;;;;2.05;0.20;;;;;;;;;;4987539;28;20078;-89
2023/10/31 04:57:21;;;;;;;0.22;0.10;;;;;;;;;;4981835;28;20054;-90
2023/10/31 04:59:48;;;;;;;0.77;0.10;;;;;;;;;;4980653;28;20639;-88
2023/10/31 05:02:15;;;;;;;0.35;0.35;;;;;;;;;;4979532;28;20046;-90
2023/10/31 05:04:43;;;;;;;1.20;0.10;;;;;;;;;;4980300;28;20050;-90
2023/10/31 05:07:12;;;;;;;1.45;0.10;;;;;;;;;;4979760;28;20058;-88
2023/10/31 05:09:42;;;;;;;0.85;0.10;;;;;;;;;;4980501;28;20084;-88
2023/10/31 05:12:13;;;;;;;;;;;;;;;;;;4973421;28;20101;-89
2023/10/31 05:14:41;;;;;;;0.20;0.10;;;;;;;;;;4980879;28;19922;-89
2023/10/31 05:17:08;;;;;;;0.10;0.10;;;;;;;;;;4970266;28;20051;-88
2023/10/31 05:19:35;;;;;;;0.05;0.05;;;;;;;;;;4994262;28;20038;-88
2023/10/31 05:22:02;;;;;;;1.40;0.43;;;;;;;;;;5000222;28;20034;-87
2023/10/31 05:24:32;;;;;;;0.40;0.20;;;;;;;;;;4984600;28;20128;-87
2023/10/31 05:26:59;;;;;;;0.95;0.35;;;;;;;;;;4978409;28;20141;-88
2023/10/31 05:29:26;;;;;;;0.17;0.17;;;;;;;;;;4978108;28;20455;-88
2023/10/31 05:31:54;;;;;;;0.20;0.20;;;;;;;;;;4985771;28;20050;-90
2023/10/31 05:34:21;;;;;;;0.65;0.20;;;;;;;;;;4974743;28;20594;-89
2023/10/31 05:36:48;;;;;;;0.45;0.20;;;;;;;;;;4974857;28;20058;-88
2023/10/31 05:39:16;;;;;;;0.15;0.15;;;;;;;;;;4975286;28;20423;-89
2023/10/31 05:41:43;;;;;;;1.88;0.10;;;;;;;;;;4978871;28;20454;-88
2023/10/31 05:44:11;;;;;;;0.20;0.20;;;;;;;;;;4980947;28;20058;-87
2023/10/31 05:46:41;;;;;;;0.15;0.15;;;;;;;;;;4981848;28;20047;-89
2023/10/31 05:49:08;;;;;;;0.55;0.10;;;;;;;;;;4982365;28;20458;-87
2023/10/31 05:51:36;;;;;;;0.63;0.20;;;;;;;;;;4982003;28;20570;-88
2023/10/31 05:54:04;;;;;;;1.35;0.10;;;;;;;;;;4982050;28;20104;-86
2023/10/31 05:56:31;;;;;;;0.57;0.17;;;;;;;;;;4978616;28;20059;-88
2023/10/31 05:58:58;;;;;;;0.00;0.00;;;;;;;;;;4988665;28;20054;-88
2023/10/31 06:01:26;;;;;;;0.45;0.13;;;;;;;;;;4981786;28;20050;-88
2023/10/31 06:03:53;;;;;;;0.00;0.00;;;;;;;;;;4979031;28;20427;-91
2023/10/31 06:06:21;;;;;;;0.30;0.20;;;;;;;;;;4978290;28;20047;-89
2023/10/31 06:08:48;;;;;;;0.65;0.22;;;;;;;;;;4973792;28;20050;-94
2023/10/31 06:11:15;;;;;;;0.10;0.10;;;;;;;;;;4982237;28;20050;-90
2023/10/31 06:13:43;;;;;;;0.10;0.10;;;;;;;;;;4981847;28;20058;-87
2023/10/31 06:16:10;;;;;;;1.73;0.55;;;;;;;;;;4982181;28;20054;-90
2023/10/31 06:18:39;;;;;;;0.20;0.20;;;;;;;;;;4981109;28;20081;-82
2023/10/31 06:21:08;;;;;;;3.13;0.55;;;;;;;;;;4981322;28;20089;-88
2023/10/31 06:23:39;;;;;;;0.40;0.40;;;;;;;;;;4962100;28;20122;-88
2023/10/31 06:26:06;;;;;;;0.30;0.20;;;;;;;;;;4996749;28;20050;-90
2023/10/31 06:28:35;;;;;;;0.20;0.20;;;;;;;;;;4981659;28;20402;-89
2023/10/31 06:31:11;;;;;;;0.20;0.20;;;;;;;;;;4984482;28;20557;-93
2023/10/31 06:33:39;;;;;;;0.20;0.20;;;;;;;;;;4982416;28;20042;-88
2023/10/31 06:36:07;;;;;;;0.38;0.38;;;;;;;;;;4989786;28;20062;-88
2023/10/31 06:38:34;;;;;;;0.30;0.30;;;;;;;;;;4989562;28;20451;-87
2023/10/31 06:41:01;;;;;;;1.55;0.43;;;;;;;;;;4990918;28;20081;-88
2023/10/31 06:43:29;;;;;;;0.32;0.20;;;;;;;;;;4981752;28;20062;-87
2023/10/31 06:46:02;;;;;;;0.35;0.15;;;;;;;;;;4982388;28;20050;-88
2023/10/31 06:48:30;;;;;;;0.32;0.20;;;;;;;;;;4982409;28;20081;-87
2023/10/31 06:50:57;;;;;;;1.75;0.20;;;;;;;;;;4985558;28;20561;-87
2023/10/31 06:53:24;;;;;;;0.32;0.20;;;;;;;;;;4980487;28;20466;-89
2023/10/31 06:55:52;;;;;;;0.40;0.20;;;;;;;;;;4979692;28;20250;-85
2023/10/31 06:58:19;;;;;;;1.27;0.20;;;;;;;;;;4974256;28;20061;-87
2023/10/31 07:00:46;;;;;;;0.17;0.17;;;;;;;;;;4977579;28;20384;-87
2023/10/31 07:03:15;;;;;;;0.35;0.10;;;;;;;;;;4973304;28;20050;-88
2023/10/31 07:05:43;;;;;;;0.28;0.28;;;;;;;;;;4989170;28;20057;-89
2023/10/31 07:08:10;;;;;;;0.77;0.40;;;;;;;;;;4990289;28;20050;-88
2023/10/31 07:13:58;;;;;;;0.20;0.20;;;;;;;;;;4996290;28;20061;-80
2023/10/31 07:16:25;;;;;;;1.95;0.28;;;;;;;;;;4972519;28;20105;-80
2023/10/31 07:18:52;;;;;;;1.85;0.28;;;;;;;;;;4978316;28;20394;-80
2023/10/31 07:21:20;;;;;;;1.42;0.45;;;;;;;;;;4978591;28;20057;-81
2023/10/31 07:23:47;;;;;;;2.42;2.22;;;;;;;;;;4978313;28;20113;-80
2023/10/31 07:26:15;;;;;;;1.58;0.32;;;;;;;;;;4978150;28;20046;-80
2023/10/31 07:28:43;;;;;;;1.75;1.00;;;;;;;;;;4978048;28;20528;-80
2023/10/31 07:31:10;;;;;;;4.90;1.52;;;;;;;;;;4978252;28;20081;-79
2023/10/31 07:33:37;;;;;;;1.02;1.02;;;;;;;;;;4977695;28;20058;-80
2023/10/31 07:36:05;;;;;;;4.70;4.30;;;;;;;;;;4977986;28;20513;-80
2023/10/31 07:38:33;;;;;;;4.72;3.53;;;;;;;;;;4978024;28;20054;-80
2023/10/31 07:41:00;;;;;;;3.45;2.95;;;;;;;;;;4995152;28;20081;-80
2023/10/31 07:43:27;;;;;;;5.40;4.82;;;;;;;;;;4994964;28;20436;-80
2023/10/31 07:45:55;;;;;;;16.17;10.80;;;;;;;;;;4977664;28;20046;-80
2023/10/31 07:48:22;;;;;;;20.50;15.80;;;;;;;;;;4994879;28;20051;-80
2023/10/31 07:50:49;;;;;;;21.65;18.77;;;;;;;;;;4994841;28;20050;-80
2023/10/31 07:53:17;;;;;;;0.60;0.60;;;;;;;;;;4977594;28;20402;-81
2023/10/31 07:55:44;;;;;;;0.30;0.30;;;;;;;;;;4994276;28;20575;-79
2023/10/31 07:58:12;;;;;;;1.92;0.90;;;;;;;;;;4977445;28;20061;-80
2023/10/31 08:00:39;;;;;;;1.50;1.13;;;;;;;;;;5000172;28;20054;-80
2023/10/31 08:03:06;;;;;;;1.58;0.60;;;;;;;;;;4982332;28;20116;-79
2023/10/31 08:05:34;;;;;;;1.17;0.30;;;;;;;;;;4981345;28;20120;-81
2023/10/31 08:08:02;;;;;;;0.50;0.50;;;;;;;;;;4997752;28;20069;-81
2023/10/31 08:10:29;;;;;;;3.33;0.30;;;;;;;;;;4997813;28;20046;-80
2023/10/31 08:12:56;;;;;;;0.50;0.10;;;;;;;;;;4980419;28;20054;-81
2023/10/31 08:15:23;;;;;;;0.20;0.20;;;;;;;;;;4997171;28;20421;-81
2023/10/31 08:17:51;;;;;;;0.55;0.50;;;;;;;;;;4997253;28;20505;-81
2023/10/31 08:20:18;;;;;;;0.30;0.30;;;;;;;;;;4996442;28;20678;-81
2023/10/31 08:22:45;;;;;;;0.55;0.20;;;;;;;;;;4979130;28;20454;-81
2023/10/31 08:25:13;;;;;;;0.03;0.03;;;;;;;;;;4979936;28;20137;-81
2023/10/31 08:27:40;;;;;;;0.10;0.10;;;;;;;;;;4978922;28;20050;-80
2023/10/31 08:30:08;;;;;;;0.45;0.35;;;;;;;;;;4996615;28;20073;-80
2023/10/31 08:32:35;;;;;;;0.30;0.30;;;;;;;;;;4979167;28;20421;-81
2023/10/31 08:35:02;;;;;;;0.40;0.10;;;;;;;;;;4978468;28;20055;-80
2023/10/31 08:37:30;;;;;;;0.20;0.10;;;;;;;;;;4979121;28;20054;-80
2023/10/31 08:39:57;;;;;;;0.70;0.20;;;;;;;;;;4979059;28;20078;-80
2023/10/31 08:42:24;;;;;;;0.30;0.10;;;;;;;;;;4979488;28;20046;-81
2023/10/31 08:44:52;;;;;;;0.60;0.10;;;;;;;;;;4997622;28;20449;-80
2023/10/31 08:47:19;;;;;;;0.10;0.10;;;;;;;;;;4980906;28;20053;-81
2023/10/31 08:49:46;;;;;;;0.10;0.10;;;;;;;;;;4978980;28;20058;-82
2023/10/31 08:52:13;;;;;;;0.60;0.20;;;;;;;;;;4980159;28;20046;-80
2023/10/31 08:54:41;;;;;;;0.10;0.10;;;;;;;;;;4997037;28;20097;-80
2023/10/31 08:57:08;;;;;;;1.95;0.22;;;;;;;;;;4979823;28;20062;-80
2023/10/31 08:59:35;;;;;;;1.15;0.40;;;;;;;;;;4996640;28;20054;-80
2023/10/31 09:02:03;;;;;;;0.10;0.10;;;;;;;;;;4979163;28;20073;-81
2023/10/31 09:04:30;;;;;;;0.10;0.10;;;;;;;;;;4997876;28;20043;-81
2023/10/31 09:06:57;;;;;;;1.88;0.30;;;;;;;;;;4977646;28;20054;-82
2023/10/31 09:09:24;;;;;;;0.32;0.10;;;;;;;;;;4977629;28;20560;-82
2023/10/31 09:11:51;;;;;;;0.10;0.10;;;;;;;;;;4994692;28;20046;-80
2023/10/31 09:14:19;;;;;;;0.32;0.20;;;;;;;;;;4994305;28;20072;-81
2023/10/31 09:16:46;;;;;;;0.10;0.10;;;;;;;;;;4994428;28;20489;-80
2023/10/31 09:19:13;;;;;;;0.20;0.20;;;;;;;;;;4998323;28;20101;-80
2023/10/31 09:21:41;;;;;;;0.10;0.10;;;;;;;;;;4980598;28;20057;-81
2023/10/31 09:24:08;;;;;;;0.25;0.20;;;;;;;;;;4998175;28;20062;-80
2023/10/31 09:26:35;;;;;;;0.15;0.15;;;;;;;;;;4980408;28;20551;-82
2023/10/31 09:29:03;;;;;;;0.10;0.10;;;;;;;;;;4980611;28;20046;-81
2023/10/31 09:31:30;;;;;;;0.17;0.10;;;;;;;;;;4997655;28;20050;-80
2023/10/31 09:33:58;;;;;;;0.65;0.10;;;;;;;;;;4980681;28;20120;-81
2023/10/31 09:36:25;;;;;;;2.38;0.28;;;;;;;;;;4980628;28;20497;-80
2023/10/31 09:38:52;;;;;;;1.60;0.10;;;;;;;;;;4997832;28;20050;-80
2023/10/31 09:41:20;;;;;;;0.13;0.13;;;;;;;;;;4981672;28;20406;-81
2023/10/31 09:43:47;;;;;;;0.20;0.20;;;;;;;;;;4999108;28;20050;-82
2023/10/31 09:46:14;;;;;;;0.95;0.20;;;;;;;;;;4981210;28;20458;-82
2023/10/31 09:48:41;;;;;;;0.43;0.38;;;;;;;;;;4998227;28;20054;-80
2023/10/31 09:51:12;;;;;;;0.30;0.20;;;;;;;;;;4998843;28;20551;-80
2023/10/31 09:53:41;;;;;;;0.95;0.20;;;;;;;;;;4980067;28;20050;-82
2023/10/31 09:56:09;;;;;;;0.10;0.10;;;;;;;;;;4997638;28;20061;-81
2023/10/31 09:58:36;;;;;;;2.03;0.30;;;;;;;;;;4998016;28;20441;-83
2023/10/31 10:01:03;;;;;;;0.73;0.25;;;;;;;;;;4997811;28;20046;-81
2023/10/31 10:03:30;;;;;;;0.77;0.40;;;;;;;;;;4980191;28;20073;-82
2023/10/31 10:05:58;;;;;;;0.30;0.30;;;;;;;;;;4979483;28;20406;-81
2023/10/31 10:08:25;;;;;;;1.95;0.40;;;;;;;;;;4997255;28;20513;-81
2023/10/31 10:10:53;;;;;;;1.38;0.38;;;;;;;;;;4996289;28;20047;-80
2023/10/31 10:13:23;;;;;;;0.63;0.40;;;;;;;;;;4979793;28;20096;-81
2023/10/31 10:15:54;;;;;;;0.60;0.40;;;;;;;;;;4979279;28;20050;-80
2023/10/31 10:18:28;;;;;;;1.13;0.47;;;;;;;;;;4979298;28;20050;-80
2023/10/31 10:21:00;;;;;;;0.73;0.20;;;;;;;;;;4979273;28;20128;-81
2023/10/31 10:23:27;;;;;;;0.82;0.47;;;;;;;;;;4978634;28;20410;-80
2023/10/31 10:25:56;;;;;;;0.15;0.10;;;;;;;;;;4996409;28;20042;-81
2023/10/31 10:28:26;;;;;;;0.25;0.25;;;;;;;;;;4995832;28;20134;-80
2023/10/31 10:30:54;;;;;;;1.02;0.20;;;;;;;;;;4995876;28;20109;-80
2023/10/31 10:33:21;;;;;;;0.65;0.40;;;;;;;;;;4995940;28;20406;-81
2023/10/31 10:35:49;;;;;;;0.13;0.13;;;;;;;;;;4995508;28;20054;-80
2023/10/31 10:38:17;;;;;;;0.63;0.20;;;;;;;;;;4996257;28;20082;-80
2023/10/31 10:40:45;;;;;;;1.08;0.10;;;;;;;;;;4978577;28;20082;-81
2023/10/31 10:43:25;;;;;;;0.70;0.10;;;;;;;;;;4978259;28;20116;-80
2023/10/31 10:45:59;;;;;;;0.10;0.10;;;;;;;;;;4978670;28;20054;-82
2023/10/31 10:48:28;;;;;;;0.40;0.25;;;;;;;;;;4978576;28;20078;-80
2023/10/31 10:51:06;;;;;;;0.47;0.13;;;;;;;;;;4978724;28;20050;-82
2023/10/31 10:53:39;;;;;;;0.30;0.20;;;;;;;;;;4978705;28;20509;-82
2023/10/31 10:56:09;;;;;;;0.40;0.20;;;;;;;;;;4995875;28;20054;-80
2023/10/31 10:58:54;;;;;;;0.13;0.13;;;;;;;;;;4978070;28;20069;-81
2023/10/31 11:01:22;;;;;;;0.40;0.30;;;;;;;;;;4995120;28;20505;-80
2023/10/31 11:03:50;;;;;;;0.10;0.10;;;;;;;;;;4977943;28;20105;-80
2023/10/31 11:06:19;;;;;;;3.92;0.28;;;;;;;;;;4977776;28;20094;-81
2023/10/31 11:08:46;;;;;;;0.85;0.20;;;;;;;;;;4995013;28;20050;-80
2023/10/31 11:11:16;;;;;;;4.07;0.20;;;;;;;;;;4986878;28;20054;-81
2023/10/31 11:13:46;;;;;;;0.60;0.25;;;;;;;;;;4977785;28;20054;-81
2023/10/31 11:16:18;;;;;;;0.22;0.20;;;;;;;;;;4986998;28;20501;-80
2023/10/31 11:18:46;;;;;;;1.80;0.50;;;;;;;;;;4978051;28;20452;-80
2023/10/31 11:21:13;;;;;;;2.53;0.38;;;;;;;;;;4995164;28;20104;-80
2023/10/31 11:23:41;;;;;;;1.27;0.20;;;;;;;;;;4977608;28;20054;-80
2023/10/31 11:26:09;;;;;;;0.20;0.20;;;;;;;;;;4997813;28;20246;-81
2023/10/31 11:28:36;;;;;;;0.40;0.20;;;;;;;;;;4990839;28;20053;-81
2023/10/31 11:31:08;;;;;;;0.40;0.20;;;;;;;;;;5003192;28;20134;-80
2023/10/31 11:33:39;;;;;;;0.45;0.30;;;;;;;;;;4987883;28;20138;-81
2023/10/31 11:36:07;;;;;;;0.20;0.20;;;;;;;;;;4981302;28;20097;-81
2023/10/31 11:38:38;;;;;;;0.60;0.30;;;;;;;;;;4981242;28;20058;-82
2023/10/31 11:41:06;;;;;;;0.20;0.20;;;;;;;;;;4980683;28;20046;-80
2023/10/31 11:43:52;;;;;;;0.30;0.30;;;;;;;;;;4997338;28;20493;-80
2023/10/31 11:46:21;;;;;;;0.57;0.30;;;;;;;;;;4990114;28;20410;-81
2023/10/31 11:48:52;;;;;;;0.65;0.20;;;;;;;;;;4980455;28;20046;-81
2023/10/31 11:51:19;;;;;;;0.45;0.20;;;;;;;;;;4997505;28;20525;-81
2023/10/31 11:53:49;;;;;;;0.73;0.40;;;;;;;;;;4997009;28;20054;-81
2023/10/31 11:56:16;;;;;;;0.95;0.40;;;;;;;;;;4980722;28;20423;-80
2023/10/31 11:58:44;;;;;;;1.75;0.40;;;;;;;;;;4996811;28;20054;-81
2023/10/31 12:01:11;;;;;;;0.50;0.30;;;;;;;;;;4979594;28;20050;-81
2023/10/31 12:03:42;;;;;;;0.30;0.30;;;;;;;;;;4997054;28;20081;-81
2023/10/31 12:06:10;;;;;;;0.77;0.22;;;;;;;;;;4979348;28;20060;-81
2023/10/31 12:08:39;;;;;;;0.77;0.30;;;;;;;;;;4996805;28;20046;-80
2023/10/31 12:11:10;;;;;;;0.20;0.10;;;;;;;;;;4996127;28;20046;-80
2023/10/31 12:13:38;;;;;;;1.42;0.30;;;;;;;;;;4996257;28;20085;-80
2023/10/31 12:16:06;;;;;;;0.35;0.20;;;;;;;;;;4978910;28;20046;-82
2023/10/31 12:18:35;;;;;;;0.28;0.20;;;;;;;;;;4978400;28;20096;-80
2023/10/31 12:21:03;;;;;;;0.30;0.30;;;;;;;;;;4996746;28;20042;-81
2023/10/31 12:23:30;;;;;;;0.13;0.13;;;;;;;;;;4995500;28;20050;-81
2023/10/31 12:25:59;;;;;;;0.20;0.20;;;;;;;;;;4978750;28;20513;-81
2023/10/31 12:28:28;;;;;;;0.73;0.30;;;;;;;;;;4978204;28;20043;-80
2023/10/31 12:30:57;;;;;;;0.32;0.30;;;;;;;;;;4995697;28;20085;-80
2023/10/31 12:33:28;;;;;;;2.92;0.22;;;;;;;;;;4978169;28;20053;-80
2023/10/31 12:36:01;;;;;;;1.27;0.38;;;;;;;;;;4978660;28;20521;-81
2023/10/31 12:38:29;;;;;;;;;;;;;;;;;;4978095;28;20129;-80
2023/10/31 12:40:56;;;;;;;0.10;0.10;;;;;;;;;;4995003;28;19973;-82
2023/10/31 12:43:25;;;;;;;0.25;0.20;;;;;;;;;;4996091;28;20054;-80
2023/10/31 12:45:52;;;;;;;0.20;0.20;;;;;;;;;;4977952;28;20125;-81
2023/10/31 12:48:26;;;;;;;0.17;0.17;;;;;;;;;;4994816;28;20054;-80
2023/10/31 12:51:09;;;;;;;0.20;0.20;;;;;;;;;;4994996;28;20454;-81
2023/10/31 12:53:36;;;;;;;1.55;0.40;;;;;;;;;;4994154;28;20056;-79
2023/10/31 12:56:04;;;;;;;1.05;0.47;;;;;;;;;;4994412;28;20053;-80
2023/10/31 12:58:31;;;;;;;1.95;0.40;;;;;;;;;;4976962;28;20046;-80
2023/10/31 13:00:59;;;;;;;0.20;0.20;;;;;;;;;;4994447;28;20445;-80
2023/10/31 13:03:26;;;;;;;0.30;0.30;;;;;;;;;;4976840;28;20073;-80
2023/10/31 13:05:54;;;;;;;0.35;0.35;;;;;;;;;;4976856;28;20042;-81
2023/10/31 13:08:24;;;;;;;0.65;0.20;;;;;;;;;;4994251;28;20555;-81
2023/10/31 13:10:52;;;;;;;0.50;0.50;;;;;;;;;;4976621;28;20050;-81
2023/10/31 13:13:20;;;;;;;0.50;0.50;;;;;;;;;;4994245;28;20046;-81
2023/10/31 13:15:47;;;;;;;0.32;0.30;;;;;;;;;;4976978;28;20050;-81
2023/10/31 13:18:15;;;;;;;0.90;0.30;;;;;;;;;;4977067;28;20505;-80
2023/10/31 13:20:42;;;;;;;1.65;0.38;;;;;;;;;;4994104;28;20428;-80
2023/10/31 13:23:09;;;;;;;0.57;0.40;;;;;;;;;;4993906;28;20065;-80
2023/10/31 13:25:37;;;;;;;0.50;0.32;;;;;;;;;;4993988;28;20050;-81
2023/10/31 13:28:07;;;;;;;0.90;0.35;;;;;;;;;;4976453;28;20108;-79
2023/10/31 13:30:34;;;;;;;0.70;0.35;;;;;;;;;;4976302;28;20527;-81
2023/10/31 13:33:02;;;;;;;0.22;0.22;;;;;;;;;;4976436;28;20061;-80
2023/10/31 13:35:29;;;;;;;0.30;0.30;;;;;;;;;;4976332;28;20093;-79
2023/10/31 13:37:56;;;;;;;0.77;0.38;;;;;;;;;;4993664;28;20100;-80
2023/10/31 13:40:23;;;;;;;3.30;0.30;;;;;;;;;;4975989;28;20050;-81
2023/10/31 13:42:51;;;;;;;0.73;0.32;;;;;;;;;;4976064;28;20082;-80
2023/10/31 13:45:18;;;;;;;0.43;0.20;;;;;;;;;;4993346;28;20046;-80
2023/10/31 13:47:45;;;;;;;0.50;0.20;;;;;;;;;;4976326;28;20513;-80
2023/10/31 13:50:13;;;;;;;1.33;0.20;;;;;;;;;;4975820;28;20097;-79
2023/10/31 13:52:40;;;;;;;0.32;0.32;;;;;;;;;;4976027;28;20133;-80
2023/10/31 13:55:07;;;;;;;0.63;0.20;;;;;;;;;;4975784;28;20050;-79
2023/10/31 13:57:35;;;;;;;0.30;0.30;;;;;;;;;;4975858;28;20058;-80
2023/10/31 14:00:02;;;;;;;1.75;0.50;;;;;;;;;;4993477;28;20058;-81
2023/10/31 14:02:31;;;;;;;0.88;0.57;;;;;;;;;;4975668;28;20058;-79
2023/10/31 14:05:00;;;;;;;0.35;0.25;;;;;;;;;;4995185;28;20054;-79
2023/10/31 14:07:28;;;;;;;3.97;1.20;;;;;;;;;;4979318;28;20129;-79
2023/10/31 14:09:56;;;;;;;0.63;0.30;;;;;;;;;;4979088;28;20070;-80
2023/10/31 14:12:24;;;;;;;0.88;0.20;;;;;;;;;;4996293;28;20104;-80
2023/10/31 14:14:52;;;;;;;1.38;0.30;;;;;;;;;;4971666;28;20414;-79
2023/10/31 14:17:19;;;;;;;0.80;0.40;;;;;;;;;;4979409;28;20509;-79
2023/10/31 14:19:46;;;;;;;0.98;0.30;;;;;;;;;;4996598;28;20052;-80
2023/10/31 14:22:14;;;;;;;0.30;0.20;;;;;;;;;;4995843;28;20058;-80
2023/10/31 14:24:41;;;;;;;2.28;0.30;;;;;;;;;;4996421;28;20510;-79
2023/10/31 14:27:08;;;;;;;0.30;0.30;;;;;;;;;;4995122;28;20505;-80
2023/10/31 14:29:36;;;;;;;0.93;0.40;;;;;;;;;;4996181;28;20420;-79
2023/10/31 14:32:10;;;;;;;0.30;0.30;;;;;;;;;;4978485;28;20050;-79
2023/10/31 14:34:37;;;;;;;0.30;0.30;;;;;;;;;;4978683;28;20058;-80
2023/10/31 14:37:05;;;;;;;2.15;0.40;;;;;;;;;;4995749;28;20054;-79
2023/10/31 14:39:33;;;;;;;1.27;0.50;;;;;;;;;;4978484;28;20050;-80
2023/10/31 14:42:00;;;;;;;0.28;0.25;;;;;;;;;;4995627;28;20046;-81
2023/10/31 14:44:27;;;;;;;0.70;0.40;;;;;;;;;;4995321;28;20073;-80
2023/10/31 14:46:56;;;;;;;0.52;0.30;;;;;;;;;;4995518;28;20046;-79
2023/10/31 14:49:23;;;;;;;1.30;0.45;;;;;;;;;;4995439;28;20054;-79
2023/10/31 14:51:50;;;;;;;0.50;0.30;;;;;;;;;;4978443;28;20046;-79